sensor_id;sensor_type;location;lat;lon;timestamp;pressure;altitude;pressure_sealevel;temperature;humidity
71476;BME280;59286;59.274;17.974;2023-12-22T00:02:09;95930.41;;;0.94;100.00
71476;BME280;59286;59.274;17.974;2023-12-22T00:04:34;95919.19;;;0.83;100.00
71476;BME280;59286;59.274;17.974;2023-12-22T00:07:00;95919.19;;;0.83;100.00
71476;BME280;59286;59.274;17.974;2023-12-22T00:09:25;95954.50;;;1.05;100.00
71476;BME280;59286;59.274;17.974;2023-12-22T00:11:50;95910.75;;;0.86;100.00
71476;BME280;59286;59.274;17.974;2023-12-22T00:14:16;95898.59;;;0.83;100.00
71476;BME280;59286;59.274;17.974;2023-12-22T00:16:41;95940.53;;;1.06;100.00
71476;BME280;59286;59.274;17.974;2023-12-22T00:19:07;95895.06;;;0.68;100.00
71476;BME280;59286;59.274;17.974;2023-12-22T00:21:32;95874.75;;;0.63;100.00
71476;BME280;59286;59.274;17.974;2023-12-22T00:23:58;95955.75;;;1.15;100.00
71476;BME280;59286;59.274;17.974;2023-12-22T00:26:23;95910.25;;;0.77;100.00
71476;BME280;59286;59.274;17.974;2023-12-22T00:28:49;95916.22;;;0.81;100.00
71476;BME280;59286;59.274;17.974;2023-12-22T00:31:14;95927.31;;;0.85;100.00
71476;BME280;59286;59.274;17.974;2023-12-22T00:33:39;95914.63;;;0.73;100.00
71476;BME280;59286;59.274;17.974;2023-12-22T00:36:05;95916.31;;;0.88;100.00
71476;BME280;59286;59.274;17.974;2023-12-22T00:38:30;95927.63;;;0.80;100.00
71476;BME280;59286;59.274;17.974;2023-12-22T00:40:59;95941.06;;;0.92;100.00
71476;BME280;59286;59.274;17.974;2023-12-22T00:43:24;95918.34;;;0.75;100.00
71476;BME280;59286;59.274;17.974;2023-12-22T00:45:50;95963.84;;;1.13;100.00
71476;BME280;59286;59.274;17.974;2023-12-22T00:48:15;95940.63;;;0.87;100.00
71476;BME280;59286;59.274;17.974;2023-12-22T00:50:41;95918.03;;;0.80;100.00
71476;BME280;59286;59.274;17.974;2023-12-22T00:53:08;95910.63;;;0.75;100.00
71476;BME280;59286;59.274;17.974;2023-12-22T00:55:33;95920.47;;;0.70;100.00
71476;BME280;59286;59.274;17.974;2023-12-22T00:57:58;95913.53;;;0.74;100.00
71476;BME280;59286;59.274;17.974;2023-12-22T01:00:24;95935.06;;;0.85;100.00
71476;BME280;59286;59.274;17.974;2023-12-22T01:02:49;95972.16;;;1.03;100.00
71476;BME280;59286;59.274;17.974;2023-12-22T01:05:18;95976.31;;;1.11;100.00
71476;BME280;59286;59.274;17.974;2023-12-22T01:07:43;95963.59;;;0.99;100.00
71476;BME280;59286;59.274;17.974;2023-12-22T01:10:08;95941.28;;;0.84;100.00
71476;BME280;59286;59.274;17.974;2023-12-22T01:12:34;95900.41;;;0.60;100.00
71476;BME280;59286;59.274;17.974;2023-12-22T01:14:59;95916.69;;;0.64;100.00
71476;BME280;59286;59.274;17.974;2023-12-22T01:17:25;95954.69;;;0.93;100.00
71476;BME280;59286;59.274;17.974;2023-12-22T01:19:50;95923.16;;;0.77;100.00
71476;BME280;59286;59.274;17.974;2023-12-22T01:22:16;95923.50;;;0.75;100.00
71476;BME280;59286;59.274;17.974;2023-12-22T01:24:42;95899.06;;;0.66;100.00
71476;BME280;59286;59.274;17.974;2023-12-22T01:27:12;95897.63;;;0.68;100.00
71476;BME280;59286;59.274;17.974;2023-12-22T01:29:38;95969.75;;;1.14;100.00
71476;BME280;59286;59.274;17.974;2023-12-22T01:32:03;95904.75;;;0.78;100.00
71476;BME280;59286;59.274;17.974;2023-12-22T01:34:29;95902.13;;;0.75;100.00
71476;BME280;59286;59.274;17.974;2023-12-22T01:36:54;95959.88;;;1.19;100.00
71476;BME280;59286;59.274;17.974;2023-12-22T01:39:20;95951.25;;;1.08;100.00
71476;BME280;59286;59.274;17.974;2023-12-22T01:41:45;95912.44;;;0.75;100.00
71476;BME280;59286;59.274;17.974;2023-12-22T01:44:11;95906.47;;;0.71;100.00
71476;BME280;59286;59.274;17.974;2023-12-22T01:46:36;95934.47;;;0.95;100.00
71476;BME280;59286;59.274;17.974;2023-12-22T01:49:02;95925.44;;;0.82;100.00
71476;BME280;59286;59.274;17.974;2023-12-22T01:51:29;95890.53;;;0.62;100.00
71476;BME280;59286;59.274;17.974;2023-12-22T01:53:56;95914.03;;;0.83;100.00
71476;BME280;59286;59.274;17.974;2023-12-22T01:56:22;95961.66;;;1.15;100.00
71476;BME280;59286;59.274;17.974;2023-12-22T01:58:51;95863.28;;;0.61;100.00
71476;BME280;59286;59.274;17.974;2023-12-22T02:01:20;95915.59;;;0.87;100.00
71476;BME280;59286;59.274;17.974;2023-12-22T02:03:48;95893.28;;;0.72;100.00
71476;BME280;59286;59.274;17.974;2023-12-22T02:06:15;95904.03;;;0.78;100.00
71476;BME280;59286;59.274;17.974;2023-12-22T02:08:43;95926.63;;;0.88;100.00
71476;BME280;59286;59.274;17.974;2023-12-22T02:11:11;95876.63;;;0.66;100.00
71476;BME280;59286;59.274;17.974;2023-12-22T02:13:36;95863.69;;;0.63;100.00
71476;BME280;59286;59.274;17.974;2023-12-22T02:16:04;95879.94;;;0.67;100.00
71476;BME280;59286;59.274;17.974;2023-12-22T02:18:34;95934.81;;;0.93;100.00
71476;BME280;59286;59.274;17.974;2023-12-22T02:21:00;95955.00;;;1.14;100.00
71476;BME280;59286;59.274;17.974;2023-12-22T02:23:26;95963.50;;;1.15;100.00
71476;BME280;59286;59.274;17.974;2023-12-22T02:25:58;95925.09;;;0.83;100.00
71476;BME280;59286;59.274;17.974;2023-12-22T02:28:28;95868.00;;;0.55;100.00
71476;BME280;59286;59.274;17.974;2023-12-22T02:30:59;95958.97;;;1.08;100.00
71476;BME280;59286;59.274;17.974;2023-12-22T02:33:28;95914.75;;;0.80;100.00
71476;BME280;59286;59.274;17.974;2023-12-22T02:35:58;95887.28;;;0.65;100.00
71476;BME280;59286;59.274;17.974;2023-12-22T02:38:28;95907.94;;;0.68;100.00
71476;BME280;59286;59.274;17.974;2023-12-22T02:40:55;95928.81;;;0.86;100.00
71476;BME280;59286;59.274;17.974;2023-12-22T02:43:21;95885.63;;;0.53;100.00
71476;BME280;59286;59.274;17.974;2023-12-22T02:45:53;95936.53;;;0.86;100.00
71476;BME280;59286;59.274;17.974;2023-12-22T02:48:18;95880.81;;;0.52;100.00
71476;BME280;59286;59.274;17.974;2023-12-22T02:50:43;95911.63;;;0.71;100.00
71476;BME280;59286;59.274;17.974;2023-12-22T02:53:09;95897.97;;;0.67;100.00
71476;BME280;59286;59.274;17.974;2023-12-22T02:55:34;95939.91;;;0.90;100.00
71476;BME280;59286;59.274;17.974;2023-12-22T02:57:59;95881.88;;;0.51;100.00
71476;BME280;59286;59.274;17.974;2023-12-22T03:00:25;95891.53;;;0.54;100.00
71476;BME280;59286;59.274;17.974;2023-12-22T03:02:50;95912.72;;;0.70;100.00
71476;BME280;59286;59.274;17.974;2023-12-22T03:05:16;95958.53;;;1.03;100.00
71476;BME280;59286;59.274;17.974;2023-12-22T03:07:41;95925.81;;;0.84;100.00
71476;BME280;59286;59.274;17.974;2023-12-22T03:10:07;95918.28;;;0.72;100.00
71476;BME280;59286;59.274;17.974;2023-12-22T03:12:32;95943.59;;;0.89;100.00
71476;BME280;59286;59.274;17.974;2023-12-22T03:14:58;95935.34;;;0.80;100.00
71476;BME280;59286;59.274;17.974;2023-12-22T03:17:23;95923.59;;;0.82;100.00
71476;BME280;59286;59.274;17.974;2023-12-22T03:19:48;95947.66;;;0.90;100.00
71476;BME280;59286;59.274;17.974;2023-12-22T03:22:14;95973.66;;;1.04;100.00
71476;BME280;59286;59.274;17.974;2023-12-22T03:24:39;95946.06;;;0.82;100.00
71476;BME280;59286;59.274;17.974;2023-12-22T03:27:04;95927.16;;;0.74;100.00
71476;BME280;59286;59.274;17.974;2023-12-22T03:29:31;95917.47;;;0.68;100.00
71476;BME280;59286;59.274;17.974;2023-12-22T03:31:56;95982.34;;;0.96;100.00
71476;BME280;59286;59.274;17.974;2023-12-22T03:34:22;95929.41;;;0.76;100.00
71476;BME280;59286;59.274;17.974;2023-12-22T03:36:47;95930.88;;;0.77;100.00
71476;BME280;59286;59.274;17.974;2023-12-22T03:39:14;95935.91;;;0.70;100.00
71476;BME280;59286;59.274;17.974;2023-12-22T03:41:40;95941.94;;;0.77;100.00
71476;BME280;59286;59.274;17.974;2023-12-22T03:44:05;95936.22;;;0.65;100.00
71476;BME280;59286;59.274;17.974;2023-12-22T03:46:31;95955.91;;;0.76;100.00
71476;BME280;59286;59.274;17.974;2023-12-22T03:48:56;95932.94;;;0.68;100.00
71476;BME280;59286;59.274;17.974;2023-12-22T03:51:22;95955.97;;;0.80;100.00
71476;BME280;59286;59.274;17.974;2023-12-22T03:53:47;95946.00;;;0.56;100.00
71476;BME280;59286;59.274;17.974;2023-12-22T03:56:12;95944.22;;;0.60;100.00
71476;BME280;59286;59.274;17.974;2023-12-22T03:58:38;95967.63;;;0.74;100.00
71476;BME280;59286;59.274;17.974;2023-12-22T04:01:03;95998.91;;;0.95;100.00
71476;BME280;59286;59.274;17.974;2023-12-22T04:03:29;95966.72;;;0.63;100.00
71476;BME280;59286;59.274;17.974;2023-12-22T04:05:55;95948.03;;;0.47;100.00
71476;BME280;59286;59.274;17.974;2023-12-22T04:08:20;95978.16;;;0.65;100.00
71476;BME280;59286;59.274;17.974;2023-12-22T04:10:46;95997.06;;;0.73;100.00
71476;BME280;59286;59.274;17.974;2023-12-22T04:13:14;95990.38;;;0.68;100.00
71476;BME280;59286;59.274;17.974;2023-12-22T04:15:40;96006.69;;;0.76;100.00
71476;BME280;59286;59.274;17.974;2023-12-22T04:18:05;95984.34;;;0.61;100.00
71476;BME280;59286;59.274;17.974;2023-12-22T04:20:31;95965.53;;;0.38;100.00
71476;BME280;59286;59.274;17.974;2023-12-22T04:22:57;96051.13;;;0.92;100.00
71476;BME280;59286;59.274;17.974;2023-12-22T04:25:22;96001.91;;;0.55;100.00
71476;BME280;59286;59.274;17.974;2023-12-22T04:27:49;96011.59;;;0.62;100.00
71476;BME280;59286;59.274;17.974;2023-12-22T04:30:15;96031.66;;;0.72;100.00
71476;BME280;59286;59.274;17.974;2023-12-22T04:32:41;96031.59;;;0.68;100.00
71476;BME280;59286;59.274;17.974;2023-12-22T04:35:07;96024.91;;;0.45;100.00
71476;BME280;59286;59.274;17.974;2023-12-22T04:37:32;96025.38;;;0.50;100.00
71476;BME280;59286;59.274;17.974;2023-12-22T04:39:58;95993.34;;;0.29;100.00
71476;BME280;59286;59.274;17.974;2023-12-22T04:42:23;96063.31;;;0.72;100.00
71476;BME280;59286;59.274;17.974;2023-12-22T04:44:50;96037.44;;;0.46;100.00
71476;BME280;59286;59.274;17.974;2023-12-22T04:47:16;96100.19;;;0.76;100.00
71476;BME280;59286;59.274;17.974;2023-12-22T04:49:41;96034.47;;;0.25;100.00
71476;BME280;59286;59.274;17.974;2023-12-22T04:52:06;96040.94;;;0.19;100.00
71476;BME280;59286;59.274;17.974;2023-12-22T04:54:32;96025.03;;;0.14;100.00
71476;BME280;59286;59.274;17.974;2023-12-22T04:56:57;96034.19;;;0.11;100.00
71476;BME280;59286;59.274;17.974;2023-12-22T04:59:22;96045.63;;;0.14;100.00
71476;BME280;59286;59.274;17.974;2023-12-22T05:01:48;96030.97;;;-0.02;100.00
71476;BME280;59286;59.274;17.974;2023-12-22T05:04:13;96087.66;;;0.37;100.00
71476;BME280;59286;59.274;17.974;2023-12-22T05:06:39;96063.72;;;0.17;100.00
71476;BME280;59286;59.274;17.974;2023-12-22T05:09:04;96099.44;;;0.38;100.00
71476;BME280;59286;59.274;17.974;2023-12-22T05:11:29;96126.28;;;0.56;100.00
71476;BME280;59286;59.274;17.974;2023-12-22T05:13:55;96066.34;;;0.02;100.00
71476;BME280;59286;59.274;17.974;2023-12-22T05:16:20;96068.66;;;0.07;100.00
71476;BME280;59286;59.274;17.974;2023-12-22T05:18:46;96024.53;;;-0.11;100.00
71476;BME280;59286;59.274;17.974;2023-12-22T05:21:15;96117.09;;;0.39;100.00
71476;BME280;59286;59.274;17.974;2023-12-22T05:23:40;96149.00;;;0.50;100.00
71476;BME280;59286;59.274;17.974;2023-12-22T05:26:05;96097.91;;;0.18;100.00
71476;BME280;59286;59.274;17.974;2023-12-22T05:28:32;96070.66;;;-0.03;100.00
71476;BME280;59286;59.274;17.974;2023-12-22T05:30:57;96111.19;;;0.20;100.00
71476;BME280;59286;59.274;17.974;2023-12-22T05:33:23;96105.78;;;0.06;100.00
71476;BME280;59286;59.274;17.974;2023-12-22T05:35:48;96147.38;;;0.27;100.00
71476;BME280;59286;59.274;17.974;2023-12-22T05:38:14;96137.50;;;0.29;100.00
71476;BME280;59286;59.274;17.974;2023-12-22T05:40:39;96093.50;;;-0.01;100.00
71476;BME280;59286;59.274;17.974;2023-12-22T05:43:04;96185.44;;;0.52;100.00
71476;BME280;59286;59.274;17.974;2023-12-22T05:45:30;96163.81;;;0.38;100.00
71476;BME280;59286;59.274;17.974;2023-12-22T05:47:55;96133.53;;;0.16;100.00
71476;BME280;59286;59.274;17.974;2023-12-22T05:50:21;96167.06;;;0.35;100.00
71476;BME280;59286;59.274;17.974;2023-12-22T05:52:49;96175.41;;;0.47;100.00
71476;BME280;59286;59.274;17.974;2023-12-22T05:55:17;96164.06;;;0.33;100.00
71476;BME280;59286;59.274;17.974;2023-12-22T05:57:42;96166.22;;;0.31;100.00
71476;BME280;59286;59.274;17.974;2023-12-22T06:00:08;96213.25;;;0.62;100.00
71476;BME280;59286;59.274;17.974;2023-12-22T06:02:35;96175.78;;;0.30;100.00
71476;BME280;59286;59.274;17.974;2023-12-22T06:05:03;96187.16;;;0.29;100.00
71476;BME280;59286;59.274;17.974;2023-12-22T06:07:28;96163.50;;;0.24;100.00
71476;BME280;59286;59.274;17.974;2023-12-22T06:09:53;96205.56;;;0.47;100.00
71476;BME280;59286;59.274;17.974;2023-12-22T06:12:19;96181.69;;;0.31;100.00
71476;BME280;59286;59.274;17.974;2023-12-22T06:14:44;96191.81;;;0.24;100.00
71476;BME280;59286;59.274;17.974;2023-12-22T06:17:09;96177.56;;;0.11;100.00
71476;BME280;59286;59.274;17.974;2023-12-22T06:19:37;96242.44;;;0.51;100.00
71476;BME280;59286;59.274;17.974;2023-12-22T06:22:03;96247.50;;;0.63;100.00
71476;BME280;59286;59.274;17.974;2023-12-22T06:24:28;96200.53;;;0.19;100.00
71476;BME280;59286;59.274;17.974;2023-12-22T06:26:54;96235.72;;;0.46;100.00
71476;BME280;59286;59.274;17.974;2023-12-22T06:29:19;96220.72;;;0.33;100.00
71476;BME280;59286;59.274;17.974;2023-12-22T06:31:45;96191.50;;;0.10;100.00
71476;BME280;59286;59.274;17.974;2023-12-22T06:34:13;96237.63;;;0.49;100.00
71476;BME280;59286;59.274;17.974;2023-12-22T06:36:41;96195.31;;;0.16;100.00
71476;BME280;59286;59.274;17.974;2023-12-22T06:39:07;96220.56;;;0.26;100.00
71476;BME280;59286;59.274;17.974;2023-12-22T06:41:33;96247.38;;;0.40;100.00
71476;BME280;59286;59.274;17.974;2023-12-22T06:43:58;96278.69;;;0.58;100.00
71476;BME280;59286;59.274;17.974;2023-12-22T06:46:27;96297.50;;;0.62;100.00
71476;BME280;59286;59.274;17.974;2023-12-22T06:48:53;96236.00;;;0.26;100.00
71476;BME280;59286;59.274;17.974;2023-12-22T06:51:24;96271.03;;;0.46;100.00
71476;BME280;59286;59.274;17.974;2023-12-22T06:53:51;96235.09;;;0.18;100.00
71476;BME280;59286;59.274;17.974;2023-12-22T06:56:22;96291.78;;;0.53;100.00
71476;BME280;59286;59.274;17.974;2023-12-22T06:58:48;96239.41;;;0.14;100.00
71476;BME280;59286;59.274;17.974;2023-12-22T07:01:19;96330.09;;;0.70;100.00
71476;BME280;59286;59.274;17.974;2023-12-22T07:03:49;96317.97;;;0.55;100.00
71476;BME280;59286;59.274;17.974;2023-12-22T07:06:15;96352.44;;;0.66;100.00
71476;BME280;59286;59.274;17.974;2023-12-22T07:08:41;96326.22;;;0.45;100.00
71476;BME280;59286;59.274;17.974;2023-12-22T07:11:08;96314.50;;;0.32;100.00
71476;BME280;59286;59.274;17.974;2023-12-22T07:13:34;96326.03;;;0.38;100.00
71476;BME280;59286;59.274;17.974;2023-12-22T07:15:59;96354.75;;;0.40;100.00
71476;BME280;59286;59.274;17.974;2023-12-22T07:18:28;96358.78;;;0.37;100.00
71476;BME280;59286;59.274;17.974;2023-12-22T07:20:57;96336.91;;;0.31;100.00
71476;BME280;59286;59.274;17.974;2023-12-22T07:23:23;96352.44;;;0.35;100.00
71476;BME280;59286;59.274;17.974;2023-12-22T07:25:49;96363.81;;;0.34;100.00
71476;BME280;59286;59.274;17.974;2023-12-22T07:28:14;96345.44;;;0.20;100.00
71476;BME280;59286;59.274;17.974;2023-12-22T07:30:41;96395.75;;;0.45;100.00
71476;BME280;59286;59.274;17.974;2023-12-22T07:33:06;96380.50;;;0.40;100.00
71476;BME280;59286;59.274;17.974;2023-12-22T07:35:32;96412.84;;;0.53;100.00
71476;BME280;59286;59.274;17.974;2023-12-22T07:37:57;96404.13;;;0.42;100.00
71476;BME280;59286;59.274;17.974;2023-12-22T07:40:22;96398.97;;;0.42;100.00
71476;BME280;59286;59.274;17.974;2023-12-22T07:42:48;96347.50;;;-0.02;100.00
71476;BME280;59286;59.274;17.974;2023-12-22T07:45:13;96384.56;;;0.25;100.00
71476;BME280;59286;59.274;17.974;2023-12-22T07:47:39;96393.13;;;0.29;100.00
71476;BME280;59286;59.274;17.974;2023-12-22T07:50:04;96375.59;;;0.19;100.00
71476;BME280;59286;59.274;17.974;2023-12-22T07:52:33;96362.03;;;0.07;100.00
71476;BME280;59286;59.274;17.974;2023-12-22T07:54:59;96395.63;;;0.26;100.00
71476;BME280;59286;59.274;17.974;2023-12-22T07:57:24;96400.09;;;0.29;100.00
71476;BME280;59286;59.274;17.974;2023-12-22T07:59:49;96374.66;;;0.12;100.00
71476;BME280;59286;59.274;17.974;2023-12-22T08:02:15;96381.88;;;0.06;100.00
71476;BME280;59286;59.274;17.974;2023-12-22T08:04:40;96397.69;;;0.20;100.00
71476;BME280;59286;59.274;17.974;2023-12-22T08:07:06;96420.69;;;0.29;100.00
71476;BME280;59286;59.274;17.974;2023-12-22T08:09:31;96407.25;;;0.20;100.00
71476;BME280;59286;59.274;17.974;2023-12-22T08:11:58;96437.00;;;0.33;100.00
71476;BME280;59286;59.274;17.974;2023-12-22T08:14:23;96451.34;;;0.34;100.00
71476;BME280;59286;59.274;17.974;2023-12-22T08:16:49;96435.97;;;0.22;100.00
71476;BME280;59286;59.274;17.974;2023-12-22T08:19:17;96443.03;;;0.25;100.00
71476;BME280;59286;59.274;17.974;2023-12-22T08:21:43;96446.53;;;0.32;100.00
71476;BME280;59286;59.274;17.974;2023-12-22T08:24:11;96398.97;;;-0.02;100.00
71476;BME280;59286;59.274;17.974;2023-12-22T08:26:42;96484.97;;;0.53;100.00
71476;BME280;59286;59.274;17.974;2023-12-22T08:29:07;96435.47;;;0.16;100.00
71476;BME280;59286;59.274;17.974;2023-12-22T08:31:33;96451.28;;;0.30;100.00
71476;BME280;59286;59.274;17.974;2023-12-22T08:33:59;96411.38;;;0.09;100.00
71476;BME280;59286;59.274;17.974;2023-12-22T08:36:25;96492.06;;;0.56;100.00
71476;BME280;59286;59.274;17.974;2023-12-22T08:38:50;96410.25;;;-0.06;100.00
71476;BME280;59286;59.274;17.974;2023-12-22T08:41:15;96490.03;;;0.49;100.00
71476;BME280;59286;59.274;17.974;2023-12-22T08:43:41;96434.94;;;0.11;100.00
71476;BME280;59286;59.274;17.974;2023-12-22T08:46:07;96469.38;;;0.34;100.00
71476;BME280;59286;59.274;17.974;2023-12-22T08:48:35;96476.72;;;0.32;100.00
71476;BME280;59286;59.274;17.974;2023-12-22T08:51:03;96433.84;;;-0.04;100.00
71476;BME280;59286;59.274;17.974;2023-12-22T08:53:29;96498.88;;;0.36;100.00
71476;BME280;59286;59.274;17.974;2023-12-22T08:55:59;96479.47;;;0.39;100.00
71476;BME280;59286;59.274;17.974;2023-12-22T08:58:25;96457.88;;;0.16;100.00
71476;BME280;59286;59.274;17.974;2023-12-22T09:00:53;96455.13;;;0.09;100.00
71476;BME280;59286;59.274;17.974;2023-12-22T09:03:20;96479.59;;;0.30;100.00
71476;BME280;59286;59.274;17.974;2023-12-22T09:05:46;96528.75;;;0.53;100.00
71476;BME280;59286;59.274;17.974;2023-12-22T09:08:15;96514.22;;;0.45;100.00
71476;BME280;59286;59.274;17.974;2023-12-22T09:10:42;96446.47;;;0.01;100.00
71476;BME280;59286;59.274;17.974;2023-12-22T09:13:08;96464.53;;;0.17;100.00
71476;BME280;59286;59.274;17.974;2023-12-22T09:15:33;96513.22;;;0.49;100.00
71476;BME280;59286;59.274;17.974;2023-12-22T09:17:59;96497.31;;;0.32;100.00
71476;BME280;59286;59.274;17.974;2023-12-22T09:20:24;96505.44;;;0.34;100.00
71476;BME280;59286;59.274;17.974;2023-12-22T09:22:58;96505.13;;;0.35;100.00
71476;BME280;59286;59.274;17.974;2023-12-22T09:25:26;96488.84;;;0.19;100.00
71476;BME280;59286;59.274;17.974;2023-12-22T09:27:52;96458.25;;;0.02;100.00
71476;BME280;59286;59.274;17.974;2023-12-22T09:30:23;96485.13;;;0.17;100.00
71476;BME280;59286;59.274;17.974;2023-12-22T09:32:50;96490.91;;;0.14;100.00
71476;BME280;59286;59.274;17.974;2023-12-22T09:35:16;96487.47;;;0.22;100.00
71476;BME280;59286;59.274;17.974;2023-12-22T09:37:42;96518.72;;;0.36;100.00
71476;BME280;59286;59.274;17.974;2023-12-22T09:40:08;96514.66;;;0.35;100.00
71476;BME280;59286;59.274;17.974;2023-12-22T09:42:38;96462.13;;;-0.04;100.00
71476;BME280;59286;59.274;17.974;2023-12-22T09:45:21;96472.28;;;0.05;100.00
71476;BME280;59286;59.274;17.974;2023-12-22T09:47:50;96480.75;;;0.05;100.00
71476;BME280;59286;59.274;17.974;2023-12-22T09:50:16;96549.19;;;0.46;100.00
71476;BME280;59286;59.274;17.974;2023-12-22T09:52:47;96463.09;;;-0.09;100.00
71476;BME280;59286;59.274;17.974;2023-12-22T09:55:22;96469.09;;;-0.05;100.00
71476;BME280;59286;59.274;17.974;2023-12-22T09:57:50;96488.38;;;0.02;100.00
71476;BME280;59286;59.274;17.974;2023-12-22T10:00:17;96497.38;;;0.08;100.00
71476;BME280;59286;59.274;17.974;2023-12-22T10:02:43;96527.34;;;0.28;100.00
71476;BME280;59286;59.274;17.974;2023-12-22T10:05:11;96494.25;;;0.02;100.00
71476;BME280;59286;59.274;17.974;2023-12-22T10:07:45;96562.81;;;0.46;100.00
71476;BME280;59286;59.274;17.974;2023-12-22T10:10:18;96553.56;;;0.45;100.00
71476;BME280;59286;59.274;17.974;2023-12-22T10:12:47;96540.88;;;0.25;100.00
71476;BME280;59286;59.274;17.974;2023-12-22T10:15:18;96561.63;;;0.44;100.00
71476;BME280;59286;59.274;17.974;2023-12-22T10:17:55;96520.09;;;0.18;100.00
71476;BME280;59286;59.274;17.974;2023-12-22T10:20:21;96563.53;;;0.47;100.00
71476;BME280;59286;59.274;17.974;2023-12-22T10:22:48;96524.34;;;0.26;100.00
71476;BME280;59286;59.274;17.974;2023-12-22T10:25:15;96505.94;;;0.12;100.00
71476;BME280;59286;59.274;17.974;2023-12-22T10:27:43;96476.81;;;-0.05;100.00
71476;BME280;59286;59.274;17.974;2023-12-22T10:30:10;96546.84;;;0.41;100.00
71476;BME280;59286;59.274;17.974;2023-12-22T10:32:41;96555.59;;;0.52;100.00
71476;BME280;59286;59.274;17.974;2023-12-22T10:35:09;96547.69;;;0.45;100.00
71476;BME280;59286;59.274;17.974;2023-12-22T10:37:37;96559.56;;;0.49;100.00
71476;BME280;59286;59.274;17.974;2023-12-22T10:40:07;96527.66;;;0.26;100.00
71476;BME280;59286;59.274;17.974;2023-12-22T10:42:33;96544.81;;;0.34;100.00
71476;BME280;59286;59.274;17.974;2023-12-22T10:45:05;96541.81;;;0.32;100.00
71476;BME280;59286;59.274;17.974;2023-12-22T10:47:38;96520.22;;;0.09;100.00
71476;BME280;59286;59.274;17.974;2023-12-22T10:50:06;96530.03;;;0.19;100.00
71476;BME280;59286;59.274;17.974;2023-12-22T10:52:38;96526.50;;;0.24;100.00
71476;BME280;59286;59.274;17.974;2023-12-22T10:55:06;96556.06;;;0.42;100.00
71476;BME280;59286;59.274;17.974;2023-12-22T10:57:35;96548.59;;;0.25;100.00
71476;BME280;59286;59.274;17.974;2023-12-22T11:00:05;96571.59;;;0.45;100.00
71476;BME280;59286;59.274;17.974;2023-12-22T11:02:33;96579.63;;;0.56;100.00
71476;BME280;59286;59.274;17.974;2023-12-22T11:05:05;96533.34;;;0.32;100.00
71476;BME280;59286;59.274;17.974;2023-12-22T11:07:47;96550.66;;;0.47;100.00
71476;BME280;59286;59.274;17.974;2023-12-22T11:10:19;96546.63;;;0.34;100.00
71476;BME280;59286;59.274;17.974;2023-12-22T11:12:49;96513.44;;;0.17;100.00
71476;BME280;59286;59.274;17.974;2023-12-22T11:15:19;96536.31;;;0.34;100.00
71476;BME280;59286;59.274;17.974;2023-12-22T11:17:46;96522.22;;;0.28;100.00
71476;BME280;59286;59.274;17.974;2023-12-22T11:20:14;96522.00;;;0.21;100.00
71476;BME280;59286;59.274;17.974;2023-12-22T11:22:40;96515.34;;;0.20;100.00
71476;BME280;59286;59.274;17.974;2023-12-22T11:25:10;96516.66;;;0.14;100.00
71476;BME280;59286;59.274;17.974;2023-12-22T11:27:37;96586.28;;;0.57;100.00
71476;BME280;59286;59.274;17.974;2023-12-22T11:30:05;96569.13;;;0.49;100.00
71476;BME280;59286;59.274;17.974;2023-12-22T11:32:36;96522.00;;;0.21;100.00
71476;BME280;59286;59.274;17.974;2023-12-22T11:35:01;96534.00;;;0.29;100.00
71476;BME280;59286;59.274;17.974;2023-12-22T11:37:28;96546.44;;;0.27;100.00
71476;BME280;59286;59.274;17.974;2023-12-22T11:39:56;96546.53;;;0.30;100.00
71476;BME280;59286;59.274;17.974;2023-12-22T11:42:36;96545.66;;;0.38;100.00
71476;BME280;59286;59.274;17.974;2023-12-22T11:45:09;96530.63;;;0.13;100.00
71476;BME280;59286;59.274;17.974;2023-12-22T11:47:36;96553.19;;;0.31;100.00
71476;BME280;59286;59.274;17.974;2023-12-22T11:50:02;96555.53;;;0.36;100.00
71476;BME280;59286;59.274;17.974;2023-12-22T11:52:28;96537.56;;;0.24;100.00
71476;BME280;59286;59.274;17.974;2023-12-22T11:54:57;96556.53;;;0.32;100.00
71476;BME280;59286;59.274;17.974;2023-12-22T11:57:36;96536.72;;;0.20;100.00
71476;BME280;59286;59.274;17.974;2023-12-22T12:00:05;96519.28;;;0.02;100.00
71476;BME280;59286;59.274;17.974;2023-12-22T12:02:35;96536.09;;;0.11;100.00
71476;BME280;59286;59.274;17.974;2023-12-22T12:05:04;96518.19;;;0.03;100.00
71476;BME280;59286;59.274;17.974;2023-12-22T12:07:41;96576.66;;;0.42;100.00
71476;BME280;59286;59.274;17.974;2023-12-22T12:13:13;96540.81;;;0.09;100.00
71476;BME280;59286;59.274;17.974;2023-12-22T12:15:41;96579.03;;;0.35;100.00
71476;BME280;59286;59.274;17.974;2023-12-22T12:18:07;96551.81;;;0.22;100.00
71476;BME280;59286;59.274;17.974;2023-12-22T12:20:36;96609.03;;;0.55;100.00
71476;BME280;59286;59.274;17.974;2023-12-22T12:23:09;96576.78;;;0.33;100.00
71476;BME280;59286;59.274;17.974;2023-12-22T12:25:34;96560.41;;;0.14;100.00
71476;BME280;59286;59.274;17.974;2023-12-22T12:28:04;96568.66;;;0.19;100.00
71476;BME280;59286;59.274;17.974;2023-12-22T12:30:31;96577.16;;;0.20;100.00
71476;BME280;59286;59.274;17.974;2023-12-22T12:32:59;96622.78;;;0.47;100.00
71476;BME280;59286;59.274;17.974;2023-12-22T12:35:28;96539.88;;;-0.11;100.00
71476;BME280;59286;59.274;17.974;2023-12-22T12:37:54;96594.06;;;0.21;100.00
71476;BME280;59286;59.274;17.974;2023-12-22T12:40:23;96611.75;;;0.46;100.00
71476;BME280;59286;59.274;17.974;2023-12-22T12:42:50;96547.06;;;-0.04;100.00
71476;BME280;59286;59.274;17.974;2023-12-22T12:45:21;96595.88;;;0.32;100.00
71476;BME280;59286;59.274;17.974;2023-12-22T12:48:01;96552.19;;;-0.04;100.00
71476;BME280;59286;59.274;17.974;2023-12-22T12:50:27;96559.69;;;0.01;100.00
71476;BME280;59286;59.274;17.974;2023-12-22T12:52:59;96621.94;;;0.43;100.00